KMOB/MOB METAR and TAF weather

Enter ICAO airport designator
Station Type Date Time Source
KMOB METAR 2019/04/22 23:56 UTC NOAA

KMOB 222356Z 21007KT 10SM FEW150 BKN200 22/09 A3015 RMK AO2 SLP208 T02170089 10267 20217 58003


Station Type Date Time Source
KMOB Decoded METAR 2019/04/22 23:56 UTC NOAA

MOBILE REGIONAL AIRPORT, AL, United States (KMOB) 30-41N 88-14W 67M
Apr 22, 2019 - 07:56 PM EDT / 2019.04.22 2356 UTC
Wind: from the SSW (210 degrees) at 8 MPH (7 KT):0
Visibility: 10 mile(s):0
Sky conditions: mostly cloudy
Temperature: 71.1 F (21.7 C)
Dew Point: 48.0 F (8.9 C)
Relative Humidity: 43%
Pressure (altimeter): 30.15 in. Hg (1020 hPa)
Pressure tendency: 0.01 inches (0.3 hPa) lower than three hours ago
ob: KMOB 222356Z 21007KT 10SM FEW150 BKN200 22/09 A3015 RMK AO2 SLP208 T02170089 10267 20217 58003
cycle: 0

Station Type Date Time Source
KMOB TAF 2019/04/22 18:24 UTC NOAA

TAF KMOB 221722Z 2218/2318 17008KT P6SM SKC
FM230200 00000KT P6SM SKC

Example: see airport list